createdAt,value
2024-03-11T00:00:21.240Z,3.38
2024-03-11T00:02:51.019Z,3.40
2024-03-11T00:05:18.104Z,3.65
2024-03-11T00:07:47.105Z,4.07
2024-03-11T00:10:14.635Z,4.38
2024-03-11T00:12:51.392Z,2.85
2024-03-11T00:15:27.617Z,2.63
2024-03-11T00:17:55.327Z,2.65
2024-03-11T00:20:22.789Z,3.00
2024-03-11T00:22:50.350Z,3.00
2024-03-11T00:25:17.577Z,3.42
2024-03-11T00:27:44.744Z,2.70
2024-03-11T00:30:13.075Z,3.05
2024-03-11T00:32:47.678Z,3.45
2024-03-11T00:35:16.089Z,3.20
2024-03-11T00:37:43.472Z,3.30
2024-03-11T00:40:11.633Z,8.30
2024-03-11T00:42:41.287Z,21.60
2024-03-11T00:45:12.749Z,11.45
2024-03-11T00:47:43.061Z,14.95
2024-03-11T00:50:12.164Z,13.30
2024-03-11T00:52:39.663Z,14.05
2024-03-11T00:55:08.130Z,3.97
2024-03-11T00:57:37.025Z,6.72
2024-03-11T01:00:13.778Z,4.85
2024-03-11T01:02:42.542Z,4.13
2024-03-11T01:05:10.665Z,4.75
2024-03-11T01:07:45.480Z,4.15
2024-03-11T01:10:18.099Z,3.58
2024-03-11T01:12:45.652Z,3.90
2024-03-11T01:15:13.419Z,4.22
2024-03-11T01:17:41.741Z,5.18
2024-03-11T01:20:11.604Z,4.25
2024-03-11T01:22:38.903Z,4.55
2024-03-11T01:25:07.428Z,4.30
2024-03-11T01:27:34.964Z,8.38
2024-03-11T01:30:02.530Z,5.50
2024-03-11T01:32:30.578Z,5.13
2024-03-11T01:35:00.481Z,4.22
2024-03-11T01:37:27.782Z,4.07
2024-03-11T01:39:55.014Z,5.25
2024-03-11T01:42:22.106Z,5.05
2024-03-11T01:44:50.770Z,3.50
2024-03-11T01:47:20.762Z,3.72
2024-03-11T01:49:53.961Z,4.00
2024-03-11T01:52:25.223Z,5.40
2024-03-11T01:54:53.679Z,3.95
2024-03-11T01:57:20.606Z,3.72
2024-03-11T01:59:47.703Z,3.95
2024-03-11T02:02:15.356Z,3.85
2024-03-11T02:04:46.799Z,3.97
2024-03-11T02:07:15.215Z,3.58
2024-03-11T02:09:42.903Z,3.72
2024-03-11T02:12:15.704Z,4.03
2024-03-11T02:14:42.939Z,4.47
2024-03-11T02:17:10.718Z,3.90
2024-03-11T02:19:38.855Z,4.30
2024-03-11T02:22:06.019Z,4.85
2024-03-11T02:24:33.073Z,4.35
2024-03-11T02:27:00.054Z,4.80
2024-03-11T02:29:26.986Z,4.70
2024-03-11T02:31:55.997Z,5.30
2024-03-11T02:34:23.039Z,5.90
2024-03-11T02:36:52.272Z,6.72
2024-03-11T02:39:22.618Z,5.20
2024-03-11T02:41:52.760Z,6.05
2024-03-11T02:44:19.864Z,7.10
2024-03-11T02:46:47.116Z,7.47
2024-03-11T02:49:14.835Z,7.60
2024-03-11T02:51:43.891Z,7.93
2024-03-11T02:54:11.221Z,7.35
2024-03-11T02:56:39.134Z,7.90
2024-03-11T02:59:06.643Z,6.75
2024-03-11T03:01:33.962Z,6.15
2024-03-11T03:04:00.981Z,5.72
2024-03-11T03:06:30.594Z,7.00
2024-03-11T03:08:57.544Z,6.30
2024-03-11T03:11:24.883Z,7.80
2024-03-11T03:13:52.088Z,14.20
2024-03-11T03:16:21.111Z,8.07
2024-03-11T03:18:48.233Z,6.60
2024-03-11T03:21:15.196Z,6.47
2024-03-11T03:23:42.206Z,5.82
2024-03-11T03:26:09.450Z,6.30
2024-03-11T03:28:36.453Z,6.93
2024-03-11T03:31:06.017Z,7.47
2024-03-11T03:33:33.396Z,6.78
2024-03-11T03:36:00.403Z,9.30
2024-03-11T03:38:27.735Z,7.00
2024-03-11T03:40:54.735Z,6.97
2024-03-11T03:43:21.802Z,6.97
2024-03-11T03:45:49.707Z,6.72
2024-03-11T03:48:17.842Z,5.80
2024-03-11T03:50:45.025Z,6.65
2024-03-11T03:53:12.246Z,6.80
2024-03-11T03:55:40.555Z,6.13
2024-03-11T03:58:09.152Z,7.32
2024-03-11T04:00:37.082Z,7.28
2024-03-11T04:03:06.740Z,10.65
2024-03-11T04:05:33.942Z,7.93
2024-03-11T04:08:01.201Z,7.63
2024-03-11T04:10:28.305Z,7.25
2024-03-11T04:12:57.047Z,8.75
2024-03-11T04:15:25.111Z,7.30
2024-03-11T04:17:55.800Z,7.47
2024-03-11T04:20:29.761Z,10.13
2024-03-11T04:22:57.946Z,9.23
2024-03-11T04:25:28.700Z,10.25
2024-03-11T04:27:57.287Z,9.93
2024-03-11T04:30:31.170Z,9.45
2024-03-11T04:32:59.770Z,9.05
2024-03-11T04:35:29.376Z,9.88
2024-03-11T04:38:00.665Z,8.23
2024-03-11T04:40:29.176Z,7.70
2024-03-11T04:42:56.880Z,6.93
2024-03-11T04:45:24.745Z,6.40
2024-03-11T04:47:51.937Z,5.68
2024-03-11T04:50:26.612Z,6.13
2024-03-11T04:52:56.667Z,6.13
2024-03-11T04:55:24.264Z,6.60
2024-03-11T04:57:51.284Z,6.88
2024-03-11T05:00:19.323Z,7.00
2024-03-11T05:02:46.412Z,7.32
2024-03-11T05:05:13.565Z,5.85
2024-03-11T05:07:40.570Z,6.35
2024-03-11T05:10:10.667Z,5.47
2024-03-11T05:12:37.678Z,5.65
2024-03-11T05:15:06.781Z,5.65
2024-03-11T05:17:33.865Z,5.25
2024-03-11T05:20:01.066Z,20.70
2024-03-11T05:22:27.982Z,8.85
2024-03-11T05:24:54.997Z,5.80
2024-03-11T05:27:21.958Z,5.78
2024-03-11T05:29:50.055Z,5.38
2024-03-11T05:32:17.086Z,5.90
2024-03-11T05:34:44.093Z,6.78
2024-03-11T05:37:11.023Z,7.63
2024-03-11T05:39:37.962Z,7.40
2024-03-11T05:42:06.957Z,11.30
2024-03-11T05:44:35.555Z,10.85
2024-03-11T05:47:03.726Z,9.10
2024-03-11T05:49:33.555Z,9.30
2024-03-11T05:52:00.998Z,9.45
2024-03-11T05:54:28.074Z,8.02
2024-03-11T05:56:55.892Z,7.60
2024-03-11T05:59:25.594Z,9.02
2024-03-11T06:01:53.985Z,7.55
2024-03-11T06:04:21.059Z,7.30
2024-03-11T06:06:49.562Z,6.68
2024-03-11T06:09:17.756Z,7.03
2024-03-11T06:11:50.179Z,6.00
2024-03-11T06:14:18.543Z,8.25
2024-03-11T06:16:46.529Z,7.35
2024-03-11T06:19:19.290Z,8.38
2024-03-11T06:21:46.291Z,8.50
2024-03-11T06:24:13.798Z,7.05
2024-03-11T06:26:40.751Z,6.88
2024-03-11T06:29:08.170Z,7.13
2024-03-11T06:31:35.529Z,8.27
2024-03-11T06:34:04.309Z,7.80
2024-03-11T06:36:31.360Z,7.78
2024-03-11T06:38:59.645Z,7.60
2024-03-11T06:41:29.484Z,6.45
2024-03-11T06:46:23.975Z,8.82
2024-03-11T06:48:51.196Z,9.60
2024-03-11T06:51:19.110Z,10.25
2024-03-11T06:53:46.315Z,9.65
2024-03-11T06:56:13.305Z,8.60
2024-03-11T06:58:40.352Z,9.43
2024-03-11T07:01:08.736Z,9.05
2024-03-11T07:03:39.673Z,8.15
2024-03-11T07:06:06.872Z,9.60
2024-03-11T07:08:34.354Z,8.77
2024-03-11T07:11:03.951Z,9.20
2024-03-11T07:13:37.373Z,8.27
2024-03-11T07:16:05.658Z,8.13
2024-03-11T07:18:33.172Z,8.15
2024-03-11T07:21:00.878Z,15.63
2024-03-11T07:23:33.739Z,17.13
2024-03-11T07:26:02.241Z,19.75
2024-03-11T07:28:30.289Z,20.80
2024-03-11T07:30:57.824Z,6.30
2024-03-11T07:33:25.260Z,9.85
2024-03-11T07:35:54.495Z,6.60
2024-03-11T07:38:24.825Z,7.65
2024-03-11T07:40:52.073Z,6.28
2024-03-11T07:43:19.020Z,6.80
2024-03-11T07:45:45.980Z,7.88
2024-03-11T07:48:14.530Z,9.35
2024-03-11T07:50:42.763Z,7.35
2024-03-11T07:53:09.947Z,9.18
2024-03-11T07:55:37.306Z,4.80
2024-03-11T07:58:04.404Z,7.65
2024-03-11T08:00:31.598Z,5.05
2024-03-11T08:03:00.311Z,3.67
2024-03-11T08:05:29.333Z,4.22
2024-03-11T08:07:58.377Z,3.30
2024-03-11T08:10:27.370Z,4.25
2024-03-11T08:12:54.468Z,5.07
2024-03-11T08:15:22.142Z,5.35
2024-03-11T08:17:51.075Z,8.50
2024-03-11T08:20:19.872Z,4.90
2024-03-11T08:22:49.203Z,5.32
2024-03-11T08:25:17.601Z,5.32
2024-03-11T08:27:44.615Z,3.60
2024-03-11T08:30:12.891Z,3.42
2024-03-11T08:32:42.748Z,3.72
2024-03-11T08:37:36.970Z,3.63
2024-03-11T08:40:05.816Z,3.88
2024-03-11T08:42:32.810Z,4.03
2024-03-11T08:44:59.783Z,3.95
2024-03-11T08:47:28.608Z,4.43
2024-03-11T08:49:55.707Z,4.55
2024-03-11T08:52:22.713Z,5.53
2024-03-11T08:54:52.030Z,4.35
2024-03-11T08:57:19.183Z,4.78
2024-03-11T08:59:46.765Z,4.13
2024-03-11T09:02:16.305Z,4.38
2024-03-11T09:04:48.714Z,4.53
2024-03-11T09:07:17.531Z,4.63
2024-03-11T09:09:45.258Z,5.10
2024-03-11T09:12:12.649Z,4.95
2024-03-11T09:14:39.787Z,4.90
2024-03-11T09:17:06.959Z,4.60
2024-03-11T09:19:34.238Z,4.07
2024-03-11T09:22:01.347Z,4.97
2024-03-11T09:24:28.448Z,4.28
2024-03-11T09:26:55.455Z,4.15
2024-03-11T09:29:24.000Z,4.80
2024-03-11T09:31:51.079Z,4.70
2024-03-11T09:34:18.580Z,3.90
2024-03-11T09:36:46.162Z,3.83
2024-03-11T09:39:13.760Z,3.50
2024-03-11T09:41:50.255Z,4.32
2024-03-11T09:44:22.043Z,11.07
2024-03-11T09:46:51.545Z,6.65
2024-03-11T09:49:24.151Z,4.15
2024-03-11T09:51:55.552Z,4.50
2024-03-11T09:54:23.926Z,3.25
2024-03-11T09:56:53.472Z,3.10
2024-03-11T09:59:26.410Z,3.30
2024-03-11T10:01:54.400Z,3.40
2024-03-11T10:04:25.693Z,3.22
2024-03-11T10:07:06.298Z,2.72
2024-03-11T10:09:34.027Z,3.17
2024-03-11T10:12:09.961Z,2.72
2024-03-11T10:14:40.190Z,2.72
2024-03-11T10:17:23.152Z,3.28
2024-03-11T10:20:00.439Z,3.10
2024-03-11T10:22:29.830Z,3.00
2024-03-11T10:24:58.142Z,3.22
2024-03-11T10:27:33.017Z,3.60
2024-03-11T10:30:24.412Z,3.40
2024-03-11T10:32:58.458Z,3.72
2024-03-11T10:35:35.229Z,3.67
2024-03-11T10:38:13.903Z,3.70
2024-03-11T10:40:46.525Z,3.30
2024-03-11T10:43:24.991Z,3.30
2024-03-11T10:45:52.139Z,3.63
2024-03-11T10:48:19.670Z,3.42
2024-03-11T10:50:46.727Z,3.42
2024-03-11T10:53:23.276Z,3.72
2024-03-11T10:56:00.325Z,3.45
2024-03-11T10:58:30.014Z,3.78
2024-03-11T11:01:02.367Z,4.18
2024-03-11T11:03:33.061Z,4.00
2024-03-11T11:06:11.386Z,4.50
2024-03-11T11:08:39.688Z,4.32
2024-03-11T11:11:08.366Z,4.15
2024-03-11T11:13:43.094Z,2.80
2024-03-11T11:16:11.909Z,3.33
2024-03-11T11:18:40.929Z,2.83
2024-03-11T11:21:12.613Z,2.63
2024-03-11T11:23:42.441Z,2.80
2024-03-11T11:26:09.609Z,3.05
2024-03-11T11:28:39.985Z,3.33
2024-03-11T11:31:34.234Z,5.32
2024-03-11T11:34:04.049Z,3.80
2024-03-11T11:36:31.094Z,5.95
2024-03-11T11:39:22.105Z,3.08
2024-03-11T11:41:54.547Z,2.67
2024-03-11T11:44:26.169Z,2.45
2024-03-11T11:46:53.268Z,2.38
2024-03-11T11:49:22.916Z,2.38
2024-03-11T11:51:55.918Z,3.15
2024-03-11T11:57:01.188Z,2.30
2024-03-11T11:59:28.929Z,2.30
2024-03-11T12:01:55.998Z,2.78
2024-03-11T12:04:22.951Z,2.90
2024-03-11T12:06:51.346Z,2.30
2024-03-11T12:09:18.425Z,2.80
2024-03-11T12:11:50.900Z,2.70
2024-03-11T12:14:18.459Z,12.27
2024-03-11T12:16:45.412Z,3.90
2024-03-11T12:19:12.492Z,10.68
2024-03-11T12:21:41.283Z,6.82
2024-03-11T12:24:16.233Z,7.45
2024-03-11T12:26:47.045Z,8.15
2024-03-11T12:29:15.636Z,3.58
2024-03-11T12:31:43.487Z,5.10
2024-03-11T12:34:13.094Z,3.33
2024-03-11T12:36:47.933Z,2.53
2024-03-11T12:39:28.989Z,2.28
2024-03-11T12:41:58.528Z,2.35
2024-03-11T12:44:27.138Z,2.65
2024-03-11T12:46:55.268Z,2.35
2024-03-11T12:49:29.523Z,2.40
2024-03-11T12:52:05.492Z,2.20
2024-03-11T12:54:32.613Z,7.88
2024-03-11T12:57:17.793Z,3.13
2024-03-11T12:59:58.662Z,2.83
2024-03-11T13:02:25.779Z,2.55
2024-03-11T13:04:56.382Z,2.35
2024-03-11T13:07:25.907Z,2.92
2024-03-11T13:09:56.835Z,2.53
2024-03-11T13:12:30.539Z,2.38
2024-03-11T13:14:57.818Z,2.10
2024-03-11T13:17:24.915Z,2.10
2024-03-11T13:19:58.640Z,2.00
2024-03-11T13:22:25.696Z,1.90
2024-03-11T13:24:54.800Z,3.25
2024-03-11T13:27:26.780Z,2.20
2024-03-11T13:29:55.643Z,2.00
2024-03-11T13:32:23.410Z,2.00
2024-03-11T13:34:50.535Z,2.22
2024-03-11T13:37:19.146Z,2.47
2024-03-11T13:39:48.365Z,2.50
2024-03-11T13:42:15.801Z,5.50
2024-03-11T13:44:43.232Z,11.00
2024-03-11T13:47:15.421Z,15.90
2024-03-11T13:49:46.627Z,8.18
2024-03-11T13:52:13.699Z,5.32
2024-03-11T13:54:43.719Z,10.73
2024-03-11T13:57:13.840Z,7.78
2024-03-11T13:59:41.436Z,4.30
2024-03-11T14:02:08.560Z,3.63
2024-03-11T14:04:35.665Z,5.13
2024-03-11T14:07:03.195Z,4.50
2024-03-11T14:09:30.843Z,5.43
2024-03-11T14:11:57.988Z,10.02
2024-03-11T14:14:25.107Z,8.18
2024-03-11T14:16:52.051Z,6.50
2024-03-11T14:19:19.376Z,6.70
2024-03-11T14:21:47.377Z,15.93
2024-03-11T14:24:15.535Z,6.40
2024-03-11T14:26:44.539Z,4.88
2024-03-11T14:29:16.814Z,4.95
2024-03-11T14:31:47.727Z,4.93
2024-03-11T14:34:15.700Z,2.85
2024-03-11T14:36:46.136Z,2.50
2024-03-11T14:39:18.791Z,2.67
2024-03-11T14:41:47.633Z,3.30
2024-03-11T14:44:14.937Z,2.97
2024-03-11T14:46:48.777Z,3.78
2024-03-11T14:49:24.917Z,8.63
2024-03-11T14:51:55.209Z,3.60
2024-03-11T14:54:25.637Z,4.80
2024-03-11T14:56:57.066Z,2.85
2024-03-11T14:59:25.900Z,2.60
2024-03-11T15:01:55.706Z,2.53
2024-03-11T15:04:26.584Z,2.42
2024-03-11T15:06:53.963Z,2.35
2024-03-11T15:09:21.489Z,2.20
2024-03-11T15:11:49.752Z,2.65
2024-03-11T15:14:17.217Z,3.30
2024-03-11T15:16:47.118Z,2.83
2024-03-11T15:19:14.612Z,2.90
2024-03-11T15:21:43.415Z,2.58
2024-03-11T15:24:10.896Z,3.00
2024-03-11T15:26:38.257Z,3.03
2024-03-11T15:29:09.821Z,2.92
2024-03-11T15:31:37.123Z,5.10
2024-03-11T15:34:05.352Z,2.90
2024-03-11T15:36:38.696Z,3.25
2024-03-11T15:39:06.269Z,2.78
2024-03-11T15:41:33.337Z,3.03
2024-03-11T15:44:00.285Z,2.65
2024-03-11T15:46:30.393Z,2.90
2024-03-11T15:49:00.379Z,4.55
2024-03-11T15:51:29.141Z,3.25
2024-03-11T15:53:57.853Z,3.30
2024-03-11T15:56:25.207Z,4.28
2024-03-11T15:58:52.374Z,3.30
2024-03-11T16:01:25.664Z,3.40
2024-03-11T16:03:58.283Z,2.60
2024-03-11T16:06:26.359Z,2.70
2024-03-11T16:08:55.020Z,2.60
2024-03-11T16:11:23.594Z,2.40
2024-03-11T16:13:53.010Z,3.20
2024-03-11T16:16:22.433Z,2.65
2024-03-11T16:18:50.661Z,3.40
2024-03-11T16:21:18.943Z,3.40
2024-03-11T16:23:47.769Z,4.25
2024-03-11T16:26:15.854Z,4.22
2024-03-11T16:28:44.248Z,4.20
2024-03-11T16:31:11.404Z,5.13
2024-03-11T16:33:38.961Z,4.40
2024-03-11T16:36:06.978Z,3.90
2024-03-11T16:38:33.965Z,5.30
2024-03-11T16:41:00.867Z,4.75
2024-03-11T16:43:28.926Z,4.63
2024-03-11T16:45:55.961Z,4.55
2024-03-11T16:48:25.527Z,15.05
2024-03-11T16:50:53.759Z,7.07
2024-03-11T16:53:23.607Z,6.53
2024-03-11T16:55:52.502Z,8.70
2024-03-11T16:58:19.586Z,5.78
2024-03-11T17:00:50.268Z,5.47
2024-03-11T17:03:18.286Z,5.20
2024-03-11T17:05:45.959Z,5.30
2024-03-11T17:08:16.004Z,7.30
2024-03-11T17:10:46.636Z,6.15
2024-03-11T17:13:16.356Z,5.70
2024-03-11T17:15:44.772Z,5.45
2024-03-11T17:18:13.844Z,5.63
2024-03-11T17:20:46.367Z,5.95
2024-03-11T17:23:18.080Z,5.15
2024-03-11T17:25:46.783Z,6.40
2024-03-11T17:28:17.450Z,4.55
2024-03-11T17:30:52.928Z,4.28
2024-03-11T17:33:22.677Z,4.30
2024-03-11T17:35:51.315Z,4.68
2024-03-11T17:38:21.169Z,4.88
2024-03-11T17:40:49.533Z,4.53
2024-03-11T17:43:18.543Z,4.45
2024-03-11T17:45:47.441Z,5.03
2024-03-11T17:48:17.818Z,5.30
2024-03-11T17:50:47.329Z,5.93
2024-03-11T17:53:14.566Z,5.35
2024-03-11T17:55:42.844Z,5.47
2024-03-11T17:58:14.079Z,6.10
2024-03-11T18:00:43.960Z,5.90
2024-03-11T18:03:11.625Z,9.25
2024-03-11T18:05:39.275Z,12.35
2024-03-11T18:08:11.005Z,9.38
2024-03-11T18:10:41.965Z,10.52
2024-03-11T18:13:13.140Z,8.07
2024-03-11T18:15:42.057Z,5.22
2024-03-11T18:18:14.789Z,4.53
2024-03-11T18:20:42.562Z,4.80
2024-03-11T18:23:15.306Z,3.97
2024-03-11T18:25:48.319Z,4.80
2024-03-11T18:28:16.677Z,5.45
2024-03-11T18:30:43.956Z,5.28
2024-03-11T18:33:11.322Z,7.20
2024-03-11T18:35:39.015Z,6.72
2024-03-11T18:38:07.523Z,5.72
2024-03-11T18:40:36.063Z,5.10
2024-03-11T18:43:05.382Z,5.70
2024-03-11T18:45:34.009Z,4.85
2024-03-11T18:48:02.428Z,3.25
2024-03-11T18:50:29.942Z,3.15
2024-03-11T18:53:00.569Z,5.07
2024-03-11T18:55:32.917Z,3.45
2024-03-11T18:58:01.318Z,5.15
2024-03-11T19:00:31.547Z,5.97
2024-03-11T19:03:01.128Z,6.18
2024-03-11T19:05:30.013Z,7.65
2024-03-11T19:07:57.844Z,8.35
2024-03-11T19:10:28.108Z,7.13
2024-03-11T19:12:57.196Z,11.55
2024-03-11T19:15:27.813Z,11.13
2024-03-11T19:17:56.504Z,11.35
2024-03-11T19:20:27.160Z,10.85
2024-03-11T19:22:56.384Z,10.13
2024-03-11T19:25:30.670Z,8.73
2024-03-11T19:27:59.966Z,9.18
2024-03-11T19:32:58.700Z,6.85
2024-03-11T19:35:26.778Z,6.50
2024-03-11T19:38:33.174Z,6.57
2024-03-11T19:41:39.516Z,6.25
2024-03-11T19:44:30.925Z,5.78
2024-03-11T19:47:39.866Z,5.38
2024-03-11T19:50:51.993Z,6.88
2024-03-11T19:54:03.294Z,6.43
2024-03-11T19:56:59.176Z,7.55
2024-03-11T20:00:10.376Z,8.45
2024-03-11T20:02:57.526Z,10.27
2024-03-11T20:05:45.552Z,8.15
2024-03-11T20:08:37.755Z,9.07
2024-03-11T20:11:37.482Z,12.65
2024-03-11T20:14:29.025Z,11.95
2024-03-11T20:17:35.327Z,9.10
2024-03-11T20:20:09.810Z,8.18
2024-03-11T20:22:58.297Z,13.48
2024-03-11T20:25:43.522Z,12.00
2024-03-11T20:28:21.481Z,13.32
2024-03-11T20:31:18.769Z,12.55
2024-03-11T20:33:46.123Z,11.00
2024-03-11T20:36:14.076Z,13.82
2024-03-11T20:38:41.546Z,13.20
2024-03-11T20:41:09.111Z,8.02
2024-03-11T20:43:36.195Z,6.40
2024-03-11T20:46:04.676Z,5.60
2024-03-11T20:48:32.013Z,6.68
2024-03-11T20:51:00.220Z,8.18
2024-03-11T20:53:27.428Z,10.70
2024-03-11T20:55:55.756Z,6.40
2024-03-11T20:58:23.272Z,5.47
2024-03-11T21:00:50.552Z,5.93
2024-03-11T21:03:17.774Z,6.65
2024-03-11T21:05:45.407Z,6.50
2024-03-11T21:08:12.999Z,6.57
2024-03-11T21:10:41.619Z,6.25
2024-03-11T21:13:09.636Z,5.93
2024-03-11T21:15:38.081Z,9.00
2024-03-11T21:18:06.028Z,5.78
2024-03-11T21:20:32.984Z,5.95
2024-03-11T21:23:05.322Z,7.13
2024-03-11T21:25:54.580Z,10.23
2024-03-11T21:28:22.964Z,12.77
2024-03-11T21:30:56.960Z,10.15
2024-03-11T21:33:28.225Z,9.18
2024-03-11T21:35:55.635Z,8.90
2024-03-11T21:38:28.024Z,8.77
2024-03-11T21:40:58.083Z,9.40
2024-03-11T21:43:25.047Z,9.15
2024-03-11T21:45:52.472Z,8.05
2024-03-11T21:48:19.989Z,7.95
2024-03-11T21:50:47.315Z,7.65
2024-03-11T21:53:14.820Z,7.35
2024-03-11T21:55:48.456Z,7.18
2024-03-11T21:58:19.683Z,8.65
2024-03-11T22:00:47.323Z,9.45
2024-03-11T22:03:14.304Z,6.78
2024-03-11T22:05:41.558Z,7.05
2024-03-11T22:08:09.487Z,8.02
2024-03-11T22:10:36.545Z,8.52
2024-03-11T22:13:05.986Z,7.28
2024-03-11T22:15:36.566Z,7.88
2024-03-11T22:18:03.916Z,7.43
2024-03-11T22:20:30.910Z,7.75
2024-03-11T22:22:59.258Z,7.50
2024-03-11T22:25:28.024Z,6.18
2024-03-11T22:27:55.897Z,5.63
2024-03-11T22:30:23.055Z,12.02
2024-03-11T22:32:50.438Z,8.38
2024-03-11T22:35:19.734Z,5.40
2024-03-11T22:37:47.930Z,6.82
2024-03-11T22:40:17.108Z,6.85
2024-03-11T22:42:45.927Z,6.80
2024-03-11T22:45:14.740Z,8.32
2024-03-11T22:47:42.509Z,7.10
2024-03-11T22:50:11.342Z,7.35
2024-03-11T22:52:41.187Z,7.70
2024-03-11T22:55:08.611Z,8.02
2024-03-11T22:57:38.549Z,7.68
2024-03-11T23:02:55.231Z,6.35
2024-03-11T23:05:22.183Z,5.45
2024-03-11T23:07:49.087Z,6.57
2024-03-11T23:10:18.252Z,6.80
2024-03-11T23:12:45.924Z,8.48
2024-03-11T23:15:15.383Z,7.40
2024-03-11T23:17:43.146Z,7.03
2024-03-11T23:20:11.141Z,6.10
2024-03-11T23:22:38.986Z,7.22
2024-03-11T23:25:06.595Z,6.25
2024-03-11T23:27:33.548Z,6.25
2024-03-11T23:30:00.537Z,6.88
2024-03-11T23:32:28.289Z,7.15
2024-03-11T23:34:55.276Z,8.60
2024-03-11T23:37:22.948Z,8.27
2024-03-11T23:39:50.604Z,6.63
2024-03-11T23:42:17.727Z,6.25
2024-03-11T23:44:45.813Z,5.80
2024-03-11T23:47:14.164Z,6.30
2024-03-11T23:49:42.067Z,6.72
2024-03-11T23:52:09.553Z,6.93
2024-03-11T23:54:36.538Z,7.55
2024-03-11T23:57:03.490Z,9.63
2024-03-11T23:59:30.497Z,7.15
